Time;durP1;ratioP1;P1;durP2;ratioP2;P2;SDS_P1;SDS_P2;PMS_P1;PMS_P2;Temp;Humidity;BMP_temperature;BMP_pressure;BME280_temperature;BME280_humidity;BME280_pressure;Samples;Min_cycle;Max_cycle;Signal;HPM_P1;HPM_P2
2022/02/06 00:01:15;;;;;;;15.08;6.17;;;;;;;2.83;65.50;100240.91;2205322;80;31111;-72
2022/02/06 00:04:17;;;;;;;14.18;5.70;;;;;;;2.88;65.47;100244.35;2172017;82;32941;-72
2022/02/06 00:07:19;;;;;;;18.37;6.50;;;;;;;2.92;65.32;100235.43;2171811;82;29312;-72
2022/02/06 00:10:21;;;;;;;17.02;7.12;;;;;;;2.97;65.23;100226.96;2171435;82;27634;-72
2022/02/06 00:13:23;;;;;;;16.87;7.80;;;;;;;3.01;65.27;100222.03;2172064;80;28699;-73
2022/02/06 00:16:24;;;;;;;18.95;6.72;;;;;;;3.05;65.29;100217.55;2171783;82;32000;-73
2022/02/06 00:19:26;;;;;;;17.23;7.50;;;;;;;3.09;65.17;100222.31;2171748;82;32943;-73
2022/02/06 00:22:36;;;;;;;16.60;6.33;;;;;;;3.11;65.19;100222.73;2171588;82;30233;-72
2022/02/06 00:32:09;;;;;;;9.95;5.90;;;;;;;3.13;65.27;100209.02;2200717;80;30447;-72
2022/02/06 00:35:33;;;;;;;10.48;4.90;;;;;;;3.14;65.19;100213.41;2198064;80;33859;-74
2022/02/06 00:39:02;;;;;;;17.12;5.97;;;;;;;3.14;65.23;100207.23;2213947;79;30439;-72
2022/02/06 00:41:38;;;;;;;16.87;6.22;;;;;;;3.14;65.34;100197.52;2179905;80;27640;-74
2022/02/06 00:44:39;;;;;;;12.75;4.87;;;;;;;3.15;65.38;100197.06;2166297;80;28625;-74
2022/02/06 00:47:43;;;;;;;14.75;5.55;;;;;;;3.14;65.26;100189.59;2134361;83;30991;-72
2022/02/06 00:50:48;;;;;;;10.82;4.80;;;;;;;3.15;65.31;100181.17;2133659;83;32990;-74
2022/02/06 00:53:49;;;;;;;10.20;5.00;;;;;;;3.15;65.29;100170.13;2149606;80;29331;-72
2022/02/06 00:56:50;;;;;;;11.50;4.20;;;;;;;3.17;65.27;100174.94;2180355;80;27711;-74
2022/02/06 00:59:52;;;;;;;15.00;5.47;;;;;;;3.18;65.36;100161.27;2134317;83;28638;-73
2022/02/06 01:02:54;;;;;;;9.90;4.60;;;;;;;3.19;65.34;100157.25;2152565;80;30989;-72
2022/02/06 01:05:56;;;;;;;9.95;4.45;;;;;;;3.21;65.27;100144.44;2140992;82;32957;-73
2022/02/06 01:08:57;;;;;;;10.10;4.33;;;;;;;3.20;65.23;100140.93;2134598;82;29313;-73
2022/02/06 01:11:59;;;;;;;10.50;4.78;;;;;;;3.21;65.24;100137.81;2135188;80;27655;-72
2022/02/06 01:15:09;;;;;;;11.57;4.67;;;;;;;3.22;65.15;100141.77;2216406;80;28629;-71
2022/02/06 01:18:15;;;;;;;12.88;5.10;;;;;;;3.22;65.14;100135.16;2216361;80;31038;-72
2022/02/06 01:21:24;;;;;;;12.00;5.20;;;;;;;3.23;65.18;100134.69;2216359;79;32984;-73
2022/02/06 01:24:23;;;;;;;7.62;4.25;;;;;;;3.23;65.23;100131.58;2181096;80;29324;-74
2022/02/06 01:27:31;;;;;;;9.25;4.12;;;;;;;3.23;65.22;100123.62;2171450;81;27676;-72
2022/02/06 01:30:46;;;;;;;9.83;4.17;;;;;;;3.25;65.20;100114.35;2169680;81;28639;-73
2022/02/06 01:33:45;;;;;;;8.73;4.28;;;;;;;3.24;65.17;100109.96;2169293;81;31022;-73
2022/02/06 01:36:50;;;;;;;11.05;4.85;;;;;;;3.24;65.23;100104.20;2174127;80;33018;-73
2022/02/06 01:39:58;;;;;;;12.15;5.25;;;;;;;3.23;65.18;100101.59;2230470;79;29366;-74
2022/02/06 01:42:59;;;;;;;14.63;5.95;;;;;;;3.21;65.27;100091.05;2169409;81;27660;-73
2022/02/06 01:46:13;;;;;;;12.88;4.90;;;;;;;3.20;65.30;100074.75;2118262;81;28723;-74
2022/02/06 02:12:07;;;;;;;7.90;4.10;;;;;;;3.22;65.37;100039.86;2166994;82;29333;-74
2022/02/06 02:18:16;;;;;;;11.68;4.15;;;;;;;3.25;65.36;100040.23;2143540;83;28603;-73
2022/02/06 02:27:54;;;;;;;9.55;4.85;;;;;;;3.28;65.25;100019.84;2143553;83;29364;-73
2022/02/06 02:31:01;;;;;;;5.08;3.75;;;;;;;3.28;65.16;100014.54;2139648;83;27735;-73
2022/02/06 02:47:14;;;;;;;10.80;3.65;;;;;;;3.30;65.12;99991.55;2086168;85;27777;-74
2022/02/06 02:50:19;;;;;;;6.80;3.40;;;;;;;3.30;65.05;99988.90;2089691;85;28877;-73
2022/02/06 02:56:46;;;;;;;7.67;3.58;;;;;;;3.34;65.07;99974.69;2039054;87;33792;-72
2022/02/06 03:00:18;;;;;;;5.72;3.60;;;;;;;3.34;65.07;99966.74;2039029;87;29350;-74
2022/02/06 03:06:12;;;;;;;11.25;3.47;;;;;;;3.41;65.00;99956.86;2038919;87;28656;-73
2022/02/06 03:09:15;;;;;;;8.90;3.90;;;;;;;3.43;65.06;99948.87;2038842;87;30632;-73
2022/02/06 03:12:23;;;;;;;7.22;3.72;;;;;;;3.45;64.99;99951.91;2035002;87;33047;-73
2022/02/06 03:15:35;;;;;;;7.33;3.33;;;;;;;3.49;64.96;99951.37;2017380;88;29372;-73
2022/02/06 03:18:29;;;;;;;7.40;3.98;;;;;;;3.52;64.90;99939.81;2033798;87;27848;-73
2022/02/06 03:21:30;;;;;;;6.83;3.22;;;;;;;3.55;64.86;99937.98;2035499;87;28703;-72
2022/02/06 03:24:40;;;;;;;7.17;3.75;;;;;;;3.58;64.90;99925.95;2072868;85;31019;-73
2022/02/06 03:27:35;;;;;;;8.90;3.90;;;;;;;3.62;64.74;99918.34;2079794;85;33205;-72
2022/02/06 03:30:37;;;;;;;12.55;4.20;;;;;;;3.67;64.85;99922.19;2081273;85;29353;-73
2022/02/06 03:33:39;;;;;;;7.00;3.47;;;;;;;3.71;64.80;99911.07;2135036;81;27628;-73
2022/02/06 03:36:41;;;;;;;7.70;3.02;;;;;;;3.75;64.82;99909.61;2140003;82;28764;-73
2022/02/06 03:39:49;;;;;;;9.63;3.50;;;;;;;3.79;64.69;99911.70;2142720;82;31012;-73
2022/02/06 03:43:06;;;;;;;8.48;3.10;;;;;;;3.83;64.72;99900.56;2142737;83;34021;-72
2022/02/06 03:46:12;;;;;;;8.05;3.20;;;;;;;3.85;64.63;99898.30;2107365;83;30141;-73
2022/02/06 03:49:15;;;;;;;7.40;2.90;;;;;;;3.88;64.61;99893.36;2107556;84;27794;-73
2022/02/06 03:52:15;;;;;;;8.48;3.52;;;;;;;3.91;64.65;99886.18;2107312;84;28641;-72
2022/02/06 03:55:22;;;;;;;12.53;3.90;;;;;;;3.93;64.71;99885.68;2108037;83;31687;-73
2022/02/06 03:58:21;;;;;;;5.97;3.60;;;;;;;3.95;64.70;99871.08;2105664;84;34124;-72
2022/02/06 04:01:23;;;;;;;7.85;3.98;;;;;;;3.99;64.69;99874.50;2129406;83;29355;-73
2022/02/06 04:04:24;;;;;;;9.45;3.50;;;;;;;4.00;64.75;99869.14;2143001;82;27726;-74
2022/02/06 04:07:26;;;;;;;9.10;3.62;;;;;;;4.00;64.58;99869.14;2143292;82;28269;-73
2022/02/06 04:10:41;;;;;;;8.58;3.37;;;;;;;4.00;64.69;99857.69;2117077;83;30831;-73
2022/02/06 04:13:34;;;;;;;6.47;3.27;;;;;;;4.00;64.72;99845.77;2107015;84;32958;-74
2022/02/06 04:16:49;;;;;;;10.35;4.53;;;;;;;4.00;64.62;99847.94;2103759;84;29412;-74
2022/02/06 04:19:42;;;;;;;7.78;3.37;;;;;;;4.02;64.75;99840.81;2107343;84;27644;-75
2022/02/06 04:22:43;;;;;;;8.88;3.75;;;;;;;4.02;64.61;99826.23;2107409;83;29507;-73
2022/02/06 04:25:45;;;;;;;9.60;4.00;;;;;;;4.03;64.80;99816.05;2107737;83;31959;-72
2022/02/06 04:28:47;;;;;;;7.25;3.55;;;;;;;4.05;64.75;99803.62;2106675;84;32995;-72
2022/02/06 04:31:50;;;;;;;10.05;3.52;;;;;;;4.06;64.77;99793.88;2119614;83;29450;-72
2022/02/06 04:34:54;;;;;;;8.70;3.30;;;;;;;4.07;64.68;99791.63;2143437;82;27617;-72
2022/02/06 04:41:25;;;;;;;6.40;2.80;;;;;;;4.10;64.71;99776.96;2161659;82;31035;-72
2022/02/06 05:17:20;;;;;;;5.00;2.77;;;;;;;4.26;64.76;99705.77;2145581;82;33876;-72
2022/02/06 05:23:25;;;;;;;7.55;3.80;;;;;;;4.28;64.74;99707.91;2096433;83;27768;-73
2022/02/06 05:26:43;;;;;;;6.12;3.02;;;;;;;4.29;64.83;99710.09;2125057;83;28848;-72
2022/02/06 05:29:47;;;;;;;4.60;2.70;;;;;;;4.29;64.75;99698.16;2132286;80;31031;-73
2022/02/06 05:32:50;;;;;;;5.50;2.58;;;;;;;4.31;64.76;99698.98;2155294;81;32957;-71
2022/02/06 05:35:42;;;;;;;5.20;2.10;;;;;;;4.32;64.77;99692.77;2134867;82;29956;-70
2022/02/06 05:38:44;;;;;;;4.33;2.05;;;;;;;4.33;64.75;99687.87;2136926;83;27706;-70
2022/02/06 05:41:46;;;;;;;1.90;1.47;;;;;;;4.33;64.83;99688.72;2214156;80;28680;-70
2022/02/06 05:44:54;;;;;;;3.70;2.12;;;;;;;4.34;64.83;99686.48;2220855;80;31074;-71
2022/02/06 05:47:52;;;;;;;3.90;2.12;;;;;;;4.35;64.91;99680.73;2220099;80;33790;-71
2022/02/06 05:50:54;;;;;;;4.60;2.10;;;;;;;4.37;64.90;99672.27;2220855;80;30126;-70
2022/02/06 05:53:56;;;;;;;2.90;1.87;;;;;;;4.38;64.95;99678.83;2220995;80;27597;-71
2022/02/06 05:56:58;;;;;;;2.90;1.80;;;;;;;4.39;64.93;99664.66;2220742;80;29403;-71
2022/02/06 06:00:00;;;;;;;4.17;1.90;;;;;;;4.41;64.95;99660.61;2191177;80;31073;-71
2022/02/06 06:03:04;;;;;;;5.87;2.12;;;;;;;4.42;65.02;99662.34;2221123;80;32961;-71
2022/02/06 06:06:05;;;;;;;2.92;1.75;;;;;;;4.43;65.06;99659.25;2221273;80;30097;-70
2022/02/06 06:09:07;;;;;;;4.17;1.82;;;;;;;4.44;65.08;99660.51;2184636;80;27610;-71
2022/02/06 06:12:10;;;;;;;2.30;1.80;;;;;;;4.46;65.24;99654.70;2178793;81;28658;-71
2022/02/06 06:15:12;;;;;;;3.45;1.67;;;;;;;4.47;65.24;99656.91;2178256;81;31063;-70
2022/02/06 06:18:14;;;;;;;3.33;1.75;;;;;;;4.47;65.34;99648.48;2188532;80;33048;-70
2022/02/06 06:21:19;;;;;;;2.83;1.75;;;;;;;4.48;65.43;99642.25;2221005;80;29346;-71
2022/02/06 06:24:24;;;;;;;3.80;1.57;;;;;;;4.49;65.52;99647.97;2207879;80;27594;-70
2022/02/06 06:27:25;;;;;;;7.12;2.00;;;;;;;4.48;65.56;99640.05;2178363;81;29747;-71
2022/02/06 06:30:28;;;;;;;3.75;2.00;;;;;;;4.48;65.59;99645.34;2177695;81;31007;-72
2022/02/06 06:33:30;;;;;;;7.10;2.90;;;;;;;4.48;65.64;99636.95;2178158;81;32955;-71
2022/02/06 06:36:33;;;;;;;3.25;2.25;;;;;;;4.49;65.70;99637.80;2192303;80;30072;-71
2022/02/06 06:39:42;;;;;;;4.90;2.70;;;;;;;4.47;65.71;99626.41;2153894;80;27735;-71
2022/02/06 06:42:41;;;;;;;3.33;1.95;;;;;;;4.49;65.93;99628.07;2163704;82;28721;-71
2022/02/06 06:45:43;;;;;;;4.20;2.50;;;;;;;4.51;66.07;99630.66;2163331;81;31021;-71
2022/02/06 06:48:45;;;;;;;3.37;2.02;;;;;;;4.51;66.19;99624.91;2164014;82;33165;-71
2022/02/06 06:51:47;;;;;;;2.80;1.87;;;;;;;4.54;66.35;99619.95;2201241;79;30263;-71
2022/02/06 06:54:58;;;;;;;2.25;1.62;;;;;;;4.55;66.53;99625.66;2202222;80;27712;-72
2022/02/06 06:58:08;;;;;;;2.30;1.55;;;;;;;4.56;66.67;99622.09;2200584;80;28673;-71
2022/02/06 07:04:06;;;;;;;2.52;1.37;;;;;;;4.56;67.08;99619.44;2233241;79;32382;-71
2022/02/06 07:07:08;;;;;;;3.80;1.47;;;;;;;4.58;67.24;99612.73;2168308;82;29373;-72
2022/02/06 07:10:10;;;;;;;1.32;1.20;;;;;;;4.58;67.38;99616.71;2168768;82;27619;-72
2022/02/06 07:13:13;;;;;;;1.95;1.47;;;;;;;4.56;67.43;99610.15;2155122;82;28674;-71
2022/02/06 07:16:15;;;;;;;2.65;1.70;;;;;;;4.58;67.57;99603.45;2143477;82;31847;-71
2022/02/06 07:19:17;;;;;;;3.45;1.57;;;;;;;4.56;67.77;99600.39;2143334;82;32987;-71
2022/02/06 07:22:20;;;;;;;5.72;1.95;;;;;;;4.58;67.80;99596.37;2146411;82;30305;-71
2022/02/06 07:25:23;;;;;;;6.03;2.67;;;;;;;4.60;67.97;99593.20;2168815;82;28269;-71
2022/02/06 07:28:24;;;;;;;3.95;2.00;;;;;;;4.62;68.01;99588.72;2168645;82;28669;-72
2022/02/06 07:31:26;;;;;;;2.67;1.70;;;;;;;4.66;68.12;99583.67;2167758;82;30878;-71
2022/02/06 07:34:28;;;;;;;3.08;1.80;;;;;;;4.68;68.07;99580.52;2134623;82;32963;-71
2022/02/06 07:37:30;;;;;;;3.20;1.90;;;;;;;4.74;68.11;99586.52;2142775;83;30202;-72
2022/02/06 07:40:32;;;;;;;4.40;2.08;;;;;;;4.79;68.11;99575.28;2138486;82;27704;-74
2022/02/06 07:43:33;;;;;;;4.10;1.82;;;;;;;4.84;68.25;99561.36;2148231;82;28720;-72
2022/02/06 07:46:43;;;;;;;2.25;1.70;;;;;;;4.87;68.06;99563.91;2165023;81;31014;-72
2022/02/06 07:49:41;;;;;;;2.47;1.52;;;;;;;4.91;67.98;99558.00;2163957;81;33061;-72
2022/02/06 07:52:43;;;;;;;2.90;1.87;;;;;;;4.95;68.05;99547.23;2164939;81;30304;-74
2022/02/06 07:55:45;;;;;;;2.10;1.55;;;;;;;5.01;68.01;99543.47;2164994;82;27671;-72
2022/02/06 07:58:47;;;;;;;4.53;2.10;;;;;;;5.04;67.92;99539.38;2164813;81;27851;-72
2022/02/06 08:01:51;;;;;;;2.50;2.10;;;;;;;5.09;67.99;99532.08;2164939;81;31895;-71
2022/02/06 08:04:53;;;;;;;3.83;2.30;;;;;;;5.14;67.97;99531.89;2165073;82;32990;-73
2022/02/06 08:07:56;;;;;;;4.15;2.45;;;;;;;5.20;68.00;99526.83;2165073;82;29340;-73
2022/02/06 08:11:01;;;;;;;4.15;2.35;;;;;;;5.24;67.96;99521.32;2151987;82;27613;-72
2022/02/06 08:14:01;;;;;;;3.75;2.33;;;;;;;5.29;67.94;99515.38;2137102;82;29488;-73
2022/02/06 08:17:04;;;;;;;5.20;2.35;;;;;;;5.33;67.83;99508.98;2149621;82;30998;-72
2022/02/06 08:20:10;;;;;;;4.25;2.40;;;;;;;5.40;67.85;99500.77;2138354;82;33957;-73
2022/02/06 08:23:13;;;;;;;6.37;2.55;;;;;;;5.44;67.75;99499.25;2164916;82;30134;-75
2022/02/06 08:26:15;;;;;;;3.70;1.60;;;;;;;5.48;67.57;99496.88;2165190;81;27631;-72
2022/02/06 08:29:17;;;;;;;4.22;2.35;;;;;;;5.51;67.49;99503.84;2165134;81;28703;-73
2022/02/06 08:32:22;;;;;;;2.58;1.67;;;;;;;5.55;67.32;99492.16;2164820;81;31891;-74
2022/02/06 08:35:25;;;;;;;3.35;1.60;;;;;;;5.59;67.46;99489.78;2165046;81;32794;-74
2022/02/06 08:38:28;;;;;;;3.95;2.10;;;;;;;5.63;67.39;99490.52;2165045;81;29386;-73
2022/02/06 08:41:29;;;;;;;2.33;1.52;;;;;;;5.66;67.49;99478.43;2147185;82;27704;-74
2022/02/06 08:44:31;;;;;;;1.82;1.37;;;;;;;5.70;67.29;99475.17;2133995;83;28701;-74
2022/02/06 08:47:33;;;;;;;3.27;2.17;;;;;;;5.74;67.42;99474.96;2121368;83;31693;-72
2022/02/06 08:50:35;;;;;;;3.37;2.10;;;;;;;5.80;67.52;99470.32;2133710;83;32992;-73
2022/02/06 08:53:37;;;;;;;3.10;2.00;;;;;;;5.85;67.47;99467.01;2121666;82;29406;-74
2022/02/06 08:56:40;;;;;;;6.33;2.02;;;;;;;5.90;67.21;99460.55;2133846;83;27673;-74
2022/02/06 08:59:42;;;;;;;2.87;1.82;;;;;;;5.96;67.14;99457.23;2121488;83;28653;-75
2022/02/06 09:02:43;;;;;;;3.12;2.27;;;;;;;6.00;67.06;99450.41;2142182;82;31019;-73
2022/02/06 09:05:45;;;;;;;5.42;2.70;;;;;;;6.05;67.08;99459.50;2101269;83;33178;-74
2022/02/06 09:08:53;;;;;;;3.08;1.75;;;;;;;6.07;66.77;99449.19;2217422;80;29331;-73
2022/02/06 09:11:52;;;;;;;4.62;2.30;;;;;;;6.11;66.77;99449.05;2216297;80;27703;-72
2022/02/06 09:14:55;;;;;;;3.17;1.80;;;;;;;6.13;66.60;99442.72;2217520;80;28832;-72
2022/02/06 09:17:57;;;;;;;7.42;4.05;;;;;;;6.18;66.64;99434.56;2200254;80;31057;-74
2022/02/06 09:20:59;;;;;;;63.02;27.98;;;;;;;6.26;66.71;99431.55;2178676;81;33933;-74
2022/02/06 09:24:01;;;;;;;30.32;15.43;;;;;;;6.32;66.65;99432.13;2178713;81;30596;-73
2022/02/06 09:27:05;;;;;;;13.78;6.30;;;;;;;6.41;66.63;99423.31;2178846;81;27730;-72
2022/02/06 09:30:15;;;;;;;32.30;11.85;;;;;;;6.45;66.50;99416.47;2190012;80;28823;-72
2022/02/06 09:36:20;;;;;;;40.60;18.40;;;;;;;6.54;66.41;99413.81;2196921;80;33047;-74
2022/02/06 09:39:22;;;;;;;13.90;5.90;;;;;;;6.58;66.43;99417.21;2144968;82;29694;-74
2022/02/06 09:42:27;;;;;;;10.60;4.55;;;;;;;6.62;66.21;99406.34;2200258;79;27596;-73
2022/02/06 09:45:30;;;;;;;9.40;4.75;;;;;;;6.65;66.03;99411.97;2202415;80;28733;-72
2022/02/06 09:48:32;;;;;;;9.58;4.45;;;;;;;6.65;66.16;99396.89;2164675;80;31980;-72
2022/02/06 09:51:35;;;;;;;7.28;3.47;;;;;;;6.65;66.15;99399.55;2190180;79;33919;-74
2022/02/06 09:54:37;;;;;;;8.33;4.25;;;;;;;6.66;65.87;99395.07;2202083;80;29646;-72
2022/02/06 09:57:54;;;;;;;10.40;4.03;;;;;;;6.67;66.18;99392.36;2202296;80;27632;-72
2022/02/06 10:00:53;;;;;;;9.40;4.70;;;;;;;6.68;66.18;99387.42;2199662;80;29752;-75
2022/02/06 10:04:05;;;;;;;12.75;5.03;;;;;;;6.67;65.97;99381.70;2201756;80;32111;-72
2022/02/06 10:07:11;;;;;;;20.05;9.95;;;;;;;6.68;65.86;99374.12;2198916;79;32937;-74
2022/02/06 10:10:14;;;;;;;21.12;9.90;;;;;;;6.73;66.00;99366.36;2201160;80;29805;-71
2022/02/06 10:13:16;;;;;;;10.65;6.65;;;;;;;6.75;66.09;99372.47;2181898;79;27722;-72
2022/02/06 10:16:19;;;;;;;11.95;6.95;;;;;;;6.81;66.11;99368.19;2218496;79;29634;-73
2022/02/06 10:19:21;;;;;;;12.85;7.30;;;;;;;6.86;66.16;99358.63;2163914;82;31901;-71
2022/02/06 10:22:50;;;;;;;15.15;8.05;;;;;;;6.92;65.84;99350.36;2162754;81;32920;-74
2022/02/06 10:25:48;;;;;;;13.98;9.25;;;;;;;6.96;66.06;99360.77;2191263;79;29723;-71
2022/02/06 10:28:58;;;;;;;14.43;8.40;;;;;;;7.00;65.92;99340.16;2185773;79;27627;-70
2022/02/06 10:32:01;;;;;;;18.90;12.13;;;;;;;7.03;65.92;99331.19;2102751;83;28722;-74
2022/02/06 10:35:09;;;;;;;18.95;10.40;;;;;;;7.05;66.00;99323.50;2155921;82;31083;-71
2022/02/06 10:38:28;;;;;;;16.73;11.00;;;;;;;7.09;65.91;99317.53;2165040;82;32841;-72
2022/02/06 10:41:29;;;;;;;15.53;9.33;;;;;;;7.15;65.87;99309.23;2132542;82;30479;-71
2022/02/06 10:44:31;;;;;;;14.00;7.70;;;;;;;7.20;65.88;99303.18;2119448;82;27604;-73
2022/02/06 10:47:33;;;;;;;29.35;17.62;;;;;;;7.25;65.71;99305.15;2086587;83;28672;-72
2022/02/06 10:50:36;;;;;;;12.98;6.58;;;;;;;7.31;65.55;99289.31;2183103;79;31083;-71
2022/02/06 10:53:38;;;;;;;10.72;5.47;;;;;;;7.32;65.23;99291.52;2170915;81;32985;-71
2022/02/06 10:57:01;;;;;;;21.05;9.63;;;;;;;7.33;65.00;99289.25;2133567;82;29742;-72
2022/02/06 11:00:08;;;;;;;16.70;9.00;;;;;;;7.35;65.17;99281.55;2166550;81;27668;-72
2022/02/06 11:03:30;;;;;;;14.05;8.20;;;;;;;7.34;64.93;99274.50;2200679;79;28824;-71
2022/02/06 11:09:47;;;;;;;17.95;10.90;;;;;;;7.48;65.05;99256.91;2159116;81;33102;-73
2022/02/06 11:12:52;;;;;;;11.60;5.97;;;;;;;7.61;65.17;99248.66;2210422;79;29632;-75
2022/02/06 11:15:54;;;;;;;12.18;5.83;;;;;;;7.69;64.76;99244.25;2217621;79;27839;-71
2022/02/06 11:18:57;;;;;;;9.28;5.37;;;;;;;7.80;64.68;99236.96;2198632;80;29053;-67
2022/02/06 11:22:12;;;;;;;12.15;5.87;;;;;;;7.92;64.20;99225.64;2177333;81;31093;-67
2022/02/06 11:25:15;;;;;;;13.10;6.33;;;;;;;8.06;64.53;99216.37;2164796;80;33661;-70
2022/02/06 11:28:17;;;;;;;10.93;5.58;;;;;;;8.21;64.20;99211.95;2160460;82;30436;-69
2022/02/06 11:31:19;;;;;;;19.80;11.33;;;;;;;8.33;63.86;99194.87;2160552;81;28275;-69
2022/02/06 11:34:22;;;;;;;16.57;9.25;;;;;;;8.47;63.81;99193.58;2154422;80;30095;-69
2022/02/06 11:44:57;;;;;;;35.78;21.48;;;;;;;8.74;62.77;99177.37;2197106;80;30729;-70
2022/02/06 11:48:05;;;;;;;19.40;11.80;;;;;;;8.81;62.84;99163.56;2186439;80;27693;-69
2022/02/06 11:51:07;;;;;;;9.10;6.17;;;;;;;8.89;62.85;99152.88;2134622;83;29867;-70
2022/02/06 11:54:34;;;;;;;14.65;9.58;;;;;;;8.91;62.38;99145.16;2151262;79;32212;-70
2022/02/06 11:57:36;;;;;;;29.23;18.35;;;;;;;8.93;62.05;99137.92;2117105;82;33600;-67
2022/02/06 12:00:37;;;;;;;14.73;9.30;;;;;;;8.90;61.73;99139.44;2118921;83;29477;-71
2022/02/06 12:04:04;;;;;;;7.55;4.87;;;;;;;8.89;61.71;99146.20;2116525;83;27725;-68
2022/02/06 12:07:06;;;;;;;5.12;2.90;;;;;;;8.85;61.58;99147.36;2137000;83;28812;-67
2022/02/06 12:10:08;;;;;;;7.15;4.03;;;;;;;8.78;61.64;99145.05;2133712;83;31716;-71
2022/02/06 12:13:27;;;;;;;6.37;3.60;;;;;;;8.75;61.64;99141.23;2128963;83;34197;-67
2022/02/06 12:16:36;;;;;;;5.92;3.42;;;;;;;8.73;61.51;99130.27;2129328;83;29678;-71
2022/02/06 12:19:33;;;;;;;9.73;5.12;;;;;;;8.71;61.27;99129.50;2128415;83;27622;-68
2022/02/06 12:22:39;;;;;;;5.75;3.85;;;;;;;8.71;61.43;99136.17;2129391;83;28652;-67
2022/02/06 12:25:41;;;;;;;9.78;5.40;;;;;;;8.70;61.30;99123.77;2129398;83;31021;-67
2022/02/06 12:28:44;;;;;;;10.65;5.90;;;;;;;8.69;60.80;99101.53;2128435;83;32785;-66
2022/02/06 12:31:59;;;;;;;13.28;7.08;;;;;;;8.65;60.80;99103.55;2111748;82;29671;-68
2022/02/06 12:38:23;;;;;;;11.25;5.25;;;;;;;8.69;60.79;99093.53;2126669;83;29105;-67
2022/02/06 12:41:31;;;;;;;11.75;6.12;;;;;;;8.74;60.40;99073.24;2159491;82;32172;-69
2022/02/06 12:44:31;;;;;;;12.18;6.28;;;;;;;8.78;60.77;99079.63;2145258;82;33789;-69
2022/02/06 12:47:41;;;;;;;8.68;6.10;;;;;;;8.87;61.08;99075.53;2106675;83;30502;-68
2022/02/06 12:50:42;;;;;;;8.70;5.22;;;;;;;8.97;60.60;99075.32;2135132;83;27675;-66
2022/02/06 12:54:02;;;;;;;9.60;5.20;;;;;;;9.03;60.34;99063.38;2080218;84;28662;-66
2022/02/06 12:57:05;;;;;;;13.95;5.67;;;;;;;9.08;60.51;99057.28;2049648;86;31081;-66
2022/02/06 13:00:08;;;;;;;10.58;5.28;;;;;;;9.15;59.96;99058.23;2108417;83;33780;-67
2022/02/06 13:03:33;;;;;;;7.62;4.12;;;;;;;9.17;59.95;99048.31;2110058;82;29674;-66
2022/02/06 13:06:38;;;;;;;11.08;5.45;;;;;;;9.17;59.92;99049.16;2111932;82;27718;-65
2022/02/06 13:09:44;;;;;;;9.18;4.92;;;;;;;9.19;59.91;99038.36;2155402;82;28662;-68
2022/02/06 13:12:54;;;;;;;6.35;3.42;;;;;;;9.21;59.35;99028.43;2094677;83;31138;-66
2022/02/06 13:16:08;;;;;;;6.45;3.25;;;;;;;9.20;59.42;99020.03;2158526;82;34284;-69
2022/02/06 13:22:48;;;;;;;10.08;4.92;;;;;;;9.20;59.22;99027.59;2148218;81;27600;-67
2022/02/06 13:28:55;;;;;;;5.35;3.12;;;;;;;9.09;59.01;99026.94;2113106;83;31848;-66
2022/02/06 13:35:28;;;;;;;11.55;5.42;;;;;;;8.91;59.09;99012.08;2072094;85;30569;-65
2022/02/06 13:38:18;;;;;;;9.65;5.55;;;;;;;8.87;59.18;99001.20;2103420;83;27745;-66
2022/02/06 13:41:25;;;;;;;7.40;4.30;;;;;;;8.82;59.05;98992.16;2087017;83;28383;-67
2022/02/06 13:44:26;;;;;;;14.80;9.20;;;;;;;8.78;58.84;98983.50;2095087;83;31936;-67
2022/02/06 13:47:28;;;;;;;17.98;10.75;;;;;;;8.74;58.99;98976.62;2093842;84;32996;-67
2022/02/06 13:50:30;;;;;;;13.58;7.95;;;;;;;8.71;59.01;98959.95;2093729;85;29948;-67
2022/02/06 13:53:33;;;;;;;14.33;6.33;;;;;;;8.72;59.14;98967.85;2093043;85;27775;-66
2022/02/06 13:56:37;;;;;;;7.30;4.00;;;;;;;8.74;59.12;98947.75;2112852;83;28705;-66
2022/02/06 13:59:42;;;;;;;9.15;5.78;;;;;;;8.74;58.75;98942.41;2125895;83;31041;-66
2022/02/06 14:02:56;;;;;;;6.55;4.40;;;;;;;8.75;58.98;98939.63;2060412;85;32971;-68
2022/02/06 14:06:00;;;;;;;8.03;4.03;;;;;;;8.74;58.88;98923.23;2064744;85;29705;-67
2022/02/06 14:09:17;;;;;;;8.83;5.78;;;;;;;8.74;58.94;98927.23;2059571;85;27687;-66
2022/02/06 14:12:20;;;;;;;10.32;6.08;;;;;;;8.72;58.78;98935.81;2082663;85;29113;-67
2022/02/06 14:15:27;;;;;;;6.97;4.05;;;;;;;8.68;58.85;98908.09;2091306;84;31016;-69
2022/02/06 14:18:29;;;;;;;7.87;5.28;;;;;;;8.63;58.45;98892.38;2091991;85;33876;-66
2022/02/06 14:21:46;;;;;;;12.30;5.95;;;;;;;8.60;58.83;98893.44;2069795;84;30003;-67
2022/02/06 14:25:03;;;;;;;11.50;5.80;;;;;;;8.61;59.00;98894.28;2059899;85;27717;-67
2022/02/06 14:28:23;;;;;;;9.00;4.67;;;;;;;8.60;59.01;98880.55;2058394;86;29800;-67
2022/02/06 14:31:33;;;;;;;11.88;5.67;;;;;;;8.58;59.00;98877.12;2058713;86;31009;-65
2022/02/06 14:34:35;;;;;;;8.58;5.17;;;;;;;8.52;58.72;98869.03;2059255;85;32956;-65
2022/02/06 14:37:51;;;;;;;8.48;5.00;;;;;;;8.45;58.90;98867.66;2082833;85;30959;-65
2022/02/06 14:41:07;;;;;;;;;;;;;;;8.41;59.00;98858.16;2098989;82;27724;-66
2022/02/06 14:43:58;;;;;;;8.95;4.90;;;;;;;8.35;59.05;98851.42;2140048;83;28737;-66
2022/02/06 14:47:00;;;;;;;10.58;5.65;;;;;;;8.30;59.12;98838.84;2142952;83;31015;-68
2022/02/06 14:50:16;;;;;;;9.93;5.78;;;;;;;8.24;59.15;98835.22;2142887;82;34138;-64
2022/02/06 14:53:20;;;;;;;10.43;6.00;;;;;;;8.17;59.19;98828.95;2142596;83;29663;-64
2022/02/06 14:56:22;;;;;;;5.83;3.37;;;;;;;8.13;59.36;98821.22;2133033;82;27657;-64
2022/02/06 14:59:24;;;;;;;13.35;5.95;;;;;;;8.08;59.36;98808.19;2122418;83;28530;-65
2022/02/06 15:02:26;;;;;;;11.97;7.70;;;;;;;8.03;59.43;98799.15;2107762;82;31036;-66
2022/02/06 15:05:28;;;;;;;12.85;6.75;;;;;;;7.99;59.44;98793.62;2107024;83;33995;-66
2022/02/06 15:08:30;;;;;;;8.10;4.72;;;;;;;7.93;59.60;98786.48;2107008;83;30975;-66
2022/02/06 15:11:32;;;;;;;31.82;14.18;;;;;;;7.86;59.62;98777.53;2107340;83;27657;-67
2022/02/06 15:14:34;;;;;;;42.48;17.42;;;;;;;7.83;59.82;98771.55;2106762;84;29884;-65
2022/02/06 15:17:37;;;;;;;29.75;14.15;;;;;;;7.81;59.96;98766.78;2107242;83;31368;-65
2022/02/06 15:20:39;;;;;;;10.80;5.78;;;;;;;7.80;59.90;98750.41;2106262;83;33112;-66
2022/02/06 15:23:41;;;;;;;23.15;12.47;;;;;;;7.77;60.05;98750.14;2107011;84;30766;-64
2022/02/06 15:26:43;;;;;;;17.45;9.43;;;;;;;7.71;59.92;98755.38;2081762;84;27705;-65
2022/02/06 15:29:45;;;;;;;20.50;10.78;;;;;;;7.65;59.99;98742.92;2107016;84;29795;-64
2022/02/06 15:32:47;;;;;;;19.45;8.58;;;;;;;7.59;60.05;98730.35;2110201;84;32233;-65
2022/02/06 15:35:49;;;;;;;14.35;6.92;;;;;;;7.55;60.03;98735.48;2107415;84;33421;-65
2022/02/06 15:38:51;;;;;;;13.22;6.85;;;;;;;7.47;60.13;98719.14;2114529;83;31111;-69
2022/02/06 15:41:55;;;;;;;10.70;5.90;;;;;;;7.43;60.11;98714.48;2106890;83;27723;-65
2022/02/06 15:44:57;;;;;;;11.03;6.53;;;;;;;7.36;60.13;98707.81;2159214;82;28149;-66
2022/02/06 15:48:00;;;;;;;11.18;5.85;;;;;;;7.33;60.27;98711.15;2160470;82;31400;-65
2022/02/06 15:51:02;;;;;;;17.70;9.35;;;;;;;7.27;60.37;98695.92;2159938;82;34242;-66
2022/02/06 15:54:04;;;;;;;11.05;5.00;;;;;;;7.24;60.52;98696.10;2160381;81;29423;-66
2022/02/06 15:57:08;;;;;;;13.50;6.67;;;;;;;7.22;60.54;98685.17;2159726;81;27770;-66
2022/02/06 16:00:11;;;;;;;9.90;5.53;;;;;;;7.18;60.58;98670.33;2168830;81;29099;-66
2022/02/06 16:03:14;;;;;;;22.30;9.93;;;;;;;7.15;60.66;98670.05;2197573;80;31515;-66
2022/02/06 16:06:16;;;;;;;19.52;9.88;;;;;;;7.11;60.78;98664.08;2197416;81;34115;-70
2022/02/06 16:09:24;;;;;;;16.15;7.67;;;;;;;7.10;60.80;98653.04;2198660;79;29683;-68
2022/02/06 16:12:22;;;;;;;10.28;6.10;;;;;;;7.11;60.90;98652.55;2197317;81;27751;-72
2022/02/06 16:15:24;;;;;;;13.58;6.95;;;;;;;7.10;60.90;98649.05;2198092;81;28649;-71
2022/02/06 16:18:26;;;;;;;14.47;9.00;;;;;;;7.06;60.95;98621.34;2234531;79;31638;-73
2022/02/06 16:21:29;;;;;;;39.75;20.68;;;;;;;7.01;61.07;98621.64;2186486;79;32936;-78
2022/02/06 16:24:30;;;;;;;57.50;32.42;;;;;;;6.95;61.42;98606.91;2158712;82;30469;-70
2022/02/06 16:27:33;;;;;;;36.10;23.18;;;;;;;6.91;61.62;98601.39;2161221;79;27729;-76
2022/02/06 16:30:35;;;;;;;20.12;12.73;;;;;;;6.84;61.85;98606.23;2164823;79;28756;-76
2022/02/06 16:33:37;;;;;;;21.97;13.65;;;;;;;6.75;61.99;98589.52;2198347;81;30995;-75
2022/02/06 16:36:38;;;;;;;13.50;6.15;;;;;;;6.71;62.21;98585.33;2170309;79;33889;-76
2022/02/06 16:39:41;;;;;;;9.83;4.47;;;;;;;6.67;62.29;98585.13;2198148;81;29625;-72